sensor_id;sensor_type;location;lat;lon;timestamp;P1;durP1;ratioP1;P2;durP2;ratioP2
53939;SDS011;39850;43.324;21.916;2022-09-12T00:07:35;8.0;;;6.0;;
53939;SDS011;39850;43.324;21.916;2022-09-12T00:12:13;8.0;;;6.0;;
53939;SDS011;39850;43.324;21.916;2022-09-12T00:16:50;8.0;;;6.0;;
53939;SDS011;39850;43.324;21.916;2022-09-12T00:21:32;8.0;;;6.0;;
53939;SDS011;39850;43.324;21.916;2022-09-12T00:26:13;8.0;;;6.0;;
53939;SDS011;39850;43.324;21.916;2022-09-12T00:30:50;8.0;;;6.0;;
53939;SDS011;39850;43.324;21.916;2022-09-12T00:35:27;8.0;;;6.0;;
53939;SDS011;39850;43.324;21.916;2022-09-12T00:40:06;8.0;;;6.0;;
53939;SDS011;39850;43.324;21.916;2022-09-12T00:44:51;8.0;;;6.0;;
53939;SDS011;39850;43.324;21.916;2022-09-12T00:49:43;8.0;;;6.0;;
53939;SDS011;39850;43.324;21.916;2022-09-12T00:54:39;8.0;;;6.0;;
53939;SDS011;39850;43.324;21.916;2022-09-12T01:30:44;9.0;;;8.0;;
53939;SDS011;39850;43.324;21.916;2022-09-12T01:36:17;9.0;;;8.0;;
53939;SDS011;39850;43.324;21.916;2022-09-12T01:41:42;8.0;;;8.0;;
53939;SDS011;39850;43.324;21.916;2022-09-12T01:46:55;8.0;;;7.0;;
53939;SDS011;39850;43.324;21.916;2022-09-12T01:52:09;8.0;;;7.0;;
53939;SDS011;39850;43.324;21.916;2022-09-12T01:57:24;8.0;;;7.0;;
53939;SDS011;39850;43.324;21.916;2022-09-12T02:02:27;8.0;;;7.0;;
53939;SDS011;39850;43.324;21.916;2022-09-12T02:07:37;8.0;;;7.0;;
53939;SDS011;39850;43.324;21.916;2022-09-12T02:12:51;8.0;;;7.0;;
53939;SDS011;39850;43.324;21.916;2022-09-12T02:47:59;8.0;;;6.0;;
53939;SDS011;39850;43.324;21.916;2022-09-12T02:52:46;8.0;;;6.0;;
53939;SDS011;39850;43.324;21.916;2022-09-12T02:57:25;8.0;;;6.0;;
53939;SDS011;39850;43.324;21.916;2022-09-12T03:03:19;8.0;;;6.0;;
53939;SDS011;39850;43.324;21.916;2022-09-12T03:09:11;8.0;;;6.0;;
53939;SDS011;39850;43.324;21.916;2022-09-12T03:14:37;8.0;;;6.0;;
53939;SDS011;39850;43.324;21.916;2022-09-12T03:19:59;8.0;;;6.0;;
53939;SDS011;39850;43.324;21.916;2022-09-12T03:25:09;8.0;;;6.0;;
53939;SDS011;39850;43.324;21.916;2022-09-12T03:29:56;8.0;;;6.0;;
53939;SDS011;39850;43.324;21.916;2022-09-12T03:34:33;8.0;;;6.0;;
53939;SDS011;39850;43.324;21.916;2022-09-12T04:06:53;9.0;;;7.0;;
53939;SDS011;39850;43.324;21.916;2022-09-12T04:11:30;9.0;;;7.0;;
53939;SDS011;39850;43.324;21.916;2022-09-12T04:16:11;9.0;;;7.0;;
53939;SDS011;39850;43.324;21.916;2022-09-12T04:20:49;8.0;;;6.0;;
53939;SDS011;39850;43.324;21.916;2022-09-12T04:25:26;8.0;;;6.0;;
53939;SDS011;39850;43.324;21.916;2022-09-12T04:30:08;8.0;;;7.0;;
53939;SDS011;39850;43.324;21.916;2022-09-12T04:34:45;8.0;;;7.0;;
53939;SDS011;39850;43.324;21.916;2022-09-12T04:39:22;8.0;;;6.0;;
53939;SDS011;39850;43.324;21.916;2022-09-12T04:44:13;8.0;;;6.0;;
53939;SDS011;39850;43.324;21.916;2022-09-12T04:48:52;8.0;;;7.0;;
53939;SDS011;39850;43.324;21.916;2022-09-12T04:53:29;8.0;;;7.0;;
53939;SDS011;39850;43.324;21.916;2022-09-12T05:31:04;14.0;;;14.0;;
53939;SDS011;39850;43.324;21.916;2022-09-12T05:35:50;14.0;;;14.0;;
53939;SDS011;39850;43.324;21.916;2022-09-12T05:40:28;15.0;;;14.0;;
53939;SDS011;39850;43.324;21.916;2022-09-12T05:45:09;15.0;;;14.0;;
53939;SDS011;39850;43.324;21.916;2022-09-12T05:49:45;16.0;;;14.0;;
53939;SDS011;39850;43.324;21.916;2022-09-12T05:54:22;16.0;;;14.0;;
53939;SDS011;39850;43.324;21.916;2022-09-12T05:59:09;16.0;;;15.0;;
53939;SDS011;39850;43.324;21.916;2022-09-12T06:03:56;16.0;;;15.0;;
53939;SDS011;39850;43.324;21.916;2022-09-12T06:08:34;17.0;;;16.0;;
53939;SDS011;39850;43.324;21.916;2022-09-12T06:13:11;17.0;;;16.0;;
53939;SDS011;39850;43.324;21.916;2022-09-12T06:50:27;16.0;;;14.0;;
53939;SDS011;39850;43.324;21.916;2022-09-12T06:55:07;16.0;;;14.0;;
53939;SDS011;39850;43.324;21.916;2022-09-12T06:59:45;16.0;;;14.0;;
53939;SDS011;39850;43.324;21.916;2022-09-12T07:04:21;16.0;;;14.0;;
53939;SDS011;39850;43.324;21.916;2022-09-12T07:09:09;16.0;;;14.0;;
53939;SDS011;39850;43.324;21.916;2022-09-12T07:13:57;16.0;;;14.0;;
53939;SDS011;39850;43.324;21.916;2022-09-12T07:18:39;16.0;;;14.0;;
53939;SDS011;39850;43.324;21.916;2022-09-12T07:23:16;16.0;;;14.0;;
53939;SDS011;39850;43.324;21.916;2022-09-12T07:27:54;16.0;;;14.0;;
53939;SDS011;39850;43.324;21.916;2022-09-12T07:32:31;16.0;;;14.0;;
53939;SDS011;39850;43.324;21.916;2022-09-12T07:37:08;16.0;;;14.0;;
53939;SDS011;39850;43.324;21.916;2022-09-12T08:09:47;14.0;;;13.0;;
53939;SDS011;39850;43.324;21.916;2022-09-12T08:14:25;14.0;;;13.0;;
53939;SDS011;39850;43.324;21.916;2022-09-12T08:19:03;14.0;;;13.0;;
53939;SDS011;39850;43.324;21.916;2022-09-12T08:23:43;14.0;;;13.0;;
53939;SDS011;39850;43.324;21.916;2022-09-12T08:28:20;13.0;;;13.0;;
53939;SDS011;39850;43.324;21.916;2022-09-12T08:32:57;13.0;;;13.0;;
53939;SDS011;39850;43.324;21.916;2022-09-12T08:37:34;12.0;;;12.0;;
53939;SDS011;39850;43.324;21.916;2022-09-12T08:42:57;12.0;;;12.0;;
53939;SDS011;39850;43.324;21.916;2022-09-12T08:47:46;12.0;;;12.0;;
53939;SDS011;39850;43.324;21.916;2022-09-12T08:52:50;12.0;;;12.0;;
53939;SDS011;39850;43.324;21.916;2022-09-12T08:57:32;12.0;;;12.0;;
53939;SDS011;39850;43.324;21.916;2022-09-12T09:28:50;9.0;;;8.0;;
53939;SDS011;39850;43.324;21.916;2022-09-12T09:33:36;9.0;;;8.0;;
53939;SDS011;39850;43.324;21.916;2022-09-12T09:38:49;10.0;;;8.0;;
53939;SDS011;39850;43.324;21.916;2022-09-12T09:43:32;10.0;;;8.0;;
53939;SDS011;39850;43.324;21.916;2022-09-12T09:48:30;10.0;;;8.0;;
53939;SDS011;39850;43.324;21.916;2022-09-12T09:53:46;10.0;;;8.0;;
53939;SDS011;39850;43.324;21.916;2022-09-12T09:58:35;12.0;;;10.0;;
53939;SDS011;39850;43.324;21.916;2022-09-12T10:03:38;12.0;;;10.0;;
53939;SDS011;39850;43.324;21.916;2022-09-12T10:08:35;13.0;;;11.0;;
53939;SDS011;39850;43.324;21.916;2022-09-12T10:13:39;13.0;;;11.0;;
53939;SDS011;39850;43.324;21.916;2022-09-12T10:48:32;9.0;;;7.0;;
53939;SDS011;39850;43.324;21.916;2022-09-12T10:53:31;9.0;;;7.0;;
53939;SDS011;39850;43.324;21.916;2022-09-12T10:59:35;8.0;;;6.0;;
53939;SDS011;39850;43.324;21.916;2022-09-12T11:05:14;8.0;;;6.0;;
53939;SDS011;39850;43.324;21.916;2022-09-12T11:10:40;9.0;;;7.0;;
53939;SDS011;39850;43.324;21.916;2022-09-12T11:16:14;9.0;;;7.0;;
53939;SDS011;39850;43.324;21.916;2022-09-12T11:22:17;10.0;;;8.0;;
53939;SDS011;39850;43.324;21.916;2022-09-12T11:27:57;10.0;;;8.0;;
53939;SDS011;39850;43.324;21.916;2022-09-12T11:33:41;11.0;;;10.0;;
53939;SDS011;39850;43.324;21.916;2022-09-12T12:12:59;9.0;;;8.0;;
53939;SDS011;39850;43.324;21.916;2022-09-12T12:17:41;9.0;;;8.0;;
53939;SDS011;39850;43.324;21.916;2022-09-12T12:22:24;9.0;;;8.0;;
53939;SDS011;39850;43.324;21.916;2022-09-12T12:27:24;9.0;;;8.0;;
53939;SDS011;39850;43.324;21.916;2022-09-12T12:32:25;9.0;;;8.0;;
53939;SDS011;39850;43.324;21.916;2022-09-12T12:37:55;9.0;;;8.0;;
53939;SDS011;39850;43.324;21.916;2022-09-12T12:43:31;9.0;;;8.0;;
53939;SDS011;39850;43.324;21.916;2022-09-12T12:48:17;9.0;;;8.0;;
53939;SDS011;39850;43.324;21.916;2022-09-12T12:53:06;9.0;;;7.0;;
53939;SDS011;39850;43.324;21.916;2022-09-12T13:33:34;12.0;;;10.0;;
53939;SDS011;39850;43.324;21.916;2022-09-12T13:39:16;12.0;;;10.0;;
53939;SDS011;39850;43.324;21.916;2022-09-12T13:44:00;12.0;;;10.0;;
53939;SDS011;39850;43.324;21.916;2022-09-12T13:48:43;12.0;;;10.0;;
53939;SDS011;39850;43.324;21.916;2022-09-12T13:53:46;12.0;;;10.0;;
53939;SDS011;39850;43.324;21.916;2022-09-12T13:58:33;12.0;;;10.0;;
53939;SDS011;39850;43.324;21.916;2022-09-12T14:03:27;8.0;;;7.0;;
53939;SDS011;39850;43.324;21.916;2022-09-12T14:08:10;8.0;;;7.0;;
53939;SDS011;39850;43.324;21.916;2022-09-12T15:00:23;9.0;;;8.0;;
53939;SDS011;39850;43.324;21.916;2022-09-12T15:05:26;9.0;;;8.0;;
53939;SDS011;39850;43.324;21.916;2022-09-12T15:10:26;8.0;;;8.0;;
53939;SDS011;39850;43.324;21.916;2022-09-12T15:15:20;8.0;;;8.0;;
53939;SDS011;39850;43.324;21.916;2022-09-12T15:19:57;8.0;;;8.0;;
53939;SDS011;39850;43.324;21.916;2022-09-12T15:24:34;8.0;;;8.0;;
53939;SDS011;39850;43.324;21.916;2022-09-12T15:29:12;8.0;;;7.0;;
53939;SDS011;39850;43.324;21.916;2022-09-12T15:33:50;8.0;;;7.0;;
53939;SDS011;39850;43.324;21.916;2022-09-12T15:38:31;8.0;;;7.0;;
53939;SDS011;39850;43.324;21.916;2022-09-12T16:11:17;14.0;;;14.0;;
53939;SDS011;39850;43.324;21.916;2022-09-12T16:15:59;14.0;;;14.0;;
53939;SDS011;39850;43.324;21.916;2022-09-12T16:20:40;13.0;;;12.0;;
53939;SDS011;39850;43.324;21.916;2022-09-12T16:25:19;13.0;;;12.0;;
53939;SDS011;39850;43.324;21.916;2022-09-12T16:29:56;12.0;;;11.0;;
53939;SDS011;39850;43.324;21.916;2022-09-12T16:34:32;12.0;;;11.0;;
53939;SDS011;39850;43.324;21.916;2022-09-12T16:39:09;12.0;;;11.0;;
53939;SDS011;39850;43.324;21.916;2022-09-12T16:43:47;10.0;;;10.0;;
53939;SDS011;39850;43.324;21.916;2022-09-12T16:48:24;10.0;;;10.0;;
53939;SDS011;39850;43.324;21.916;2022-09-12T16:53:00;9.0;;;8.0;;
53939;SDS011;39850;43.324;21.916;2022-09-12T16:57:37;9.0;;;8.0;;
53939;SDS011;39850;43.324;21.916;2022-09-12T17:30:10;10.0;;;9.0;;
53939;SDS011;39850;43.324;21.916;2022-09-12T17:34:47;10.0;;;9.0;;
53939;SDS011;39850;43.324;21.916;2022-09-12T17:39:25;10.0;;;9.0;;
53939;SDS011;39850;43.324;21.916;2022-09-12T17:44:03;20.0;;;20.0;;
53939;SDS011;39850;43.324;21.916;2022-09-12T17:48:41;20.0;;;20.0;;
53939;SDS011;39850;43.324;21.916;2022-09-12T17:53:18;25.0;;;25.0;;
53939;SDS011;39850;43.324;21.916;2022-09-12T17:57:55;25.0;;;25.0;;
53939;SDS011;39850;43.324;21.916;2022-09-12T18:02:34;28.0;;;28.0;;
53939;SDS011;39850;43.324;21.916;2022-09-12T18:07:14;28.0;;;28.0;;
53939;SDS011;39850;43.324;21.916;2022-09-12T18:11:55;25.0;;;25.0;;
53939;SDS011;39850;43.324;21.916;2022-09-12T18:16:34;25.0;;;25.0;;
53939;SDS011;39850;43.324;21.916;2022-09-12T18:53:53;14.0;;;11.0;;
53939;SDS011;39850;43.324;21.916;2022-09-12T18:58:31;14.0;;;11.0;;
53939;SDS011;39850;43.324;21.916;2022-09-12T19:03:09;13.0;;;11.0;;
53939;SDS011;39850;43.324;21.916;2022-09-12T19:07:46;13.0;;;11.0;;
53939;SDS011;39850;43.324;21.916;2022-09-12T19:12:23;12.0;;;11.0;;
53939;SDS011;39850;43.324;21.916;2022-09-12T19:17:01;12.0;;;11.0;;
53939;SDS011;39850;43.324;21.916;2022-09-12T19:21:37;12.0;;;10.0;;
53939;SDS011;39850;43.324;21.916;2022-09-12T19:26:19;12.0;;;10.0;;
53939;SDS011;39850;43.324;21.916;2022-09-12T19:30:56;11.0;;;10.0;;
53939;SDS011;39850;43.324;21.916;2022-09-12T19:35:33;11.0;;;10.0;;
53939;SDS011;39850;43.324;21.916;2022-09-12T20:12:36;14.0;;;12.0;;
53939;SDS011;39850;43.324;21.916;2022-09-12T20:17:13;14.0;;;12.0;;
53939;SDS011;39850;43.324;21.916;2022-09-12T20:21:49;14.0;;;12.0;;
53939;SDS011;39850;43.324;21.916;2022-09-12T20:26:27;14.0;;;12.0;;
53939;SDS011;39850;43.324;21.916;2022-09-12T20:31:15;14.0;;;12.0;;
53939;SDS011;39850;43.324;21.916;2022-09-12T20:35:52;14.0;;;12.0;;
53939;SDS011;39850;43.324;21.916;2022-09-12T20:40:29;14.0;;;12.0;;
53939;SDS011;39850;43.324;21.916;2022-09-12T20:45:09;14.0;;;12.0;;
53939;SDS011;39850;43.324;21.916;2022-09-12T20:49:47;14.0;;;12.0;;
53939;SDS011;39850;43.324;21.916;2022-09-12T20:54:24;13.0;;;13.0;;
53939;SDS011;39850;43.324;21.916;2022-09-12T20:59:04;13.0;;;13.0;;
53939;SDS011;39850;43.324;21.916;2022-09-12T21:31:28;10.0;;;9.0;;
53939;SDS011;39850;43.324;21.916;2022-09-12T21:36:10;10.0;;;9.0;;
53939;SDS011;39850;43.324;21.916;2022-09-12T21:40:48;10.0;;;9.0;;
53939;SDS011;39850;43.324;21.916;2022-09-12T21:45:27;10.0;;;9.0;;
53939;SDS011;39850;43.324;21.916;2022-09-12T21:50:11;10.0;;;9.0;;
53939;SDS011;39850;43.324;21.916;2022-09-12T21:54:48;10.0;;;9.0;;
53939;SDS011;39850;43.324;21.916;2022-09-12T21:59:24;10.0;;;9.0;;
53939;SDS011;39850;43.324;21.916;2022-09-12T22:04:02;10.0;;;10.0;;
53939;SDS011;39850;43.324;21.916;2022-09-12T22:08:39;10.0;;;10.0;;
53939;SDS011;39850;43.324;21.916;2022-09-12T22:13:16;11.0;;;10.0;;
53939;SDS011;39850;43.324;21.916;2022-09-12T22:17:52;11.0;;;10.0;;
53939;SDS011;39850;43.324;21.916;2022-09-12T22:54:47;10.0;;;8.0;;
53939;SDS011;39850;43.324;21.916;2022-09-12T22:59:24;10.0;;;8.0;;
53939;SDS011;39850;43.324;21.916;2022-09-12T23:04:03;10.0;;;8.0;;
53939;SDS011;39850;43.324;21.916;2022-09-12T23:08:40;10.0;;;8.0;;
53939;SDS011;39850;43.324;21.916;2022-09-12T23:13:17;9.0;;;8.0;;
53939;SDS011;39850;43.324;21.916;2022-09-12T23:17:54;9.0;;;8.0;;
53939;SDS011;39850;43.324;21.916;2022-09-12T23:22:31;9.0;;;8.0;;
53939;SDS011;39850;43.324;21.916;2022-09-12T23:27:08;9.0;;;8.0;;
53939;SDS011;39850;43.324;21.916;2022-09-12T23:31:46;9.0;;;8.0;;
53939;SDS011;39850;43.324;21.916;2022-09-12T23:36:26;9.0;;;8.0;;
